createdAt,value
2022-10-12T00:01:46.867Z,15.36
2022-10-12T00:04:13.501Z,15.36
2022-10-12T00:06:40.060Z,15.33
2022-10-12T00:09:06.778Z,15.42
2022-10-12T00:11:33.547Z,15.34
2022-10-12T00:14:00.337Z,15.31
2022-10-12T00:16:31.578Z,15.44
2022-10-12T00:18:59.188Z,15.39
2022-10-12T00:21:27.701Z,15.38
2022-10-12T00:23:58.397Z,15.28
2022-10-12T00:26:26.088Z,15.36
2022-10-12T00:29:01.199Z,15.40
2022-10-12T00:31:29.057Z,15.44
2022-10-12T00:33:56.292Z,15.41
2022-10-12T00:36:26.182Z,15.45
2022-10-12T00:38:55.252Z,15.40
2022-10-12T00:41:24.947Z,15.43
2022-10-12T00:43:57.957Z,15.41
2022-10-12T00:46:35.138Z,15.40
2022-10-12T00:49:25.824Z,15.44
2022-10-12T00:51:58.611Z,15.39
2022-10-12T00:54:31.119Z,15.12
2022-10-12T00:57:00.401Z,15.18
2022-10-12T00:59:33.955Z,15.06
2022-10-12T01:02:02.387Z,15.29
2022-10-12T01:04:31.857Z,15.33
2022-10-12T01:06:59.982Z,15.31
2022-10-12T01:09:28.181Z,15.11
2022-10-12T01:11:56.803Z,15.15
2022-10-12T01:14:23.489Z,15.21
2022-10-12T01:16:58.583Z,15.24
2022-10-12T01:19:46.191Z,15.32
2022-10-12T01:22:17.935Z,15.15
2022-10-12T01:25:25.956Z,15.27
2022-10-12T01:27:57.754Z,15.14
2022-10-12T01:30:26.835Z,15.21
2022-10-12T01:33:12.042Z,15.20
2022-10-12T01:36:16.193Z,15.21
2022-10-12T01:38:57.977Z,15.16
2022-10-12T01:41:34.696Z,15.24
2022-10-12T01:44:01.414Z,14.98
2022-10-12T01:46:28.375Z,15.25
2022-10-12T01:48:58.514Z,15.03
2022-10-12T01:51:36.441Z,15.28
2022-10-12T01:54:13.164Z,15.30
2022-10-12T01:56:49.459Z,15.34
2022-10-12T02:00:02.082Z,15.33
2022-10-12T02:02:41.813Z,15.14
2022-10-12T02:05:34.348Z,15.31
2022-10-12T02:08:23.051Z,15.25
2022-10-12T02:11:01.888Z,15.25
2022-10-12T02:13:33.479Z,15.14
2022-10-12T02:16:03.591Z,15.27
2022-10-12T02:18:31.219Z,15.10
2022-10-12T02:21:00.783Z,14.99
2022-10-12T02:23:28.366Z,15.29
2022-10-12T02:25:58.720Z,15.30
2022-10-12T02:28:27.730Z,15.26
2022-10-12T02:31:02.975Z,15.28
2022-10-12T02:33:43.716Z,15.26
2022-10-12T02:36:21.617Z,15.19
2022-10-12T02:39:07.609Z,15.15
2022-10-12T02:41:40.224Z,15.20
2022-10-12T02:44:12.220Z,15.24
2022-10-12T02:46:40.801Z,15.21
2022-10-12T02:49:08.292Z,15.23
2022-10-12T02:51:36.166Z,15.28
2022-10-12T02:54:03.676Z,15.24
2022-10-12T02:56:30.342Z,15.00
2022-10-12T02:58:57.034Z,15.33
2022-10-12T03:01:23.875Z,15.36
2022-10-12T03:03:50.577Z,15.35
2022-10-12T03:06:17.403Z,15.10
2022-10-12T03:08:43.990Z,15.29
2022-10-12T03:11:12.897Z,15.29
2022-10-12T03:13:39.533Z,15.02
2022-10-12T03:16:09.297Z,15.21
2022-10-12T03:18:36.887Z,15.26
2022-10-12T03:21:04.020Z,15.06
2022-10-12T03:23:30.711Z,15.09
2022-10-12T03:25:57.354Z,15.37
2022-10-12T03:28:24.291Z,15.26
2022-10-12T03:30:51.006Z,15.25
2022-10-12T03:33:17.644Z,15.12
2022-10-12T03:35:45.588Z,15.17
2022-10-12T03:38:13.557Z,15.05
2022-10-12T03:40:40.761Z,15.16
2022-10-12T03:43:08.166Z,15.10
2022-10-12T03:45:35.166Z,15.10
2022-10-12T03:48:05.162Z,15.05
2022-10-12T03:50:35.065Z,14.96
2022-10-12T03:53:03.169Z,15.12
2022-10-12T03:55:29.913Z,15.01
2022-10-12T03:57:56.666Z,15.02
2022-10-12T04:00:24.577Z,14.99
2022-10-12T04:02:51.261Z,14.99
2022-10-12T04:05:19.191Z,15.10
2022-10-12T04:07:45.983Z,14.93
2022-10-12T04:10:12.756Z,15.11
2022-10-12T04:12:39.409Z,15.05
2022-10-12T04:15:06.621Z,14.76
2022-10-12T04:17:33.259Z,14.89
2022-10-12T04:19:59.944Z,14.70
2022-10-12T04:22:26.597Z,14.85
2022-10-12T04:24:53.244Z,15.03
2022-10-12T04:27:20.352Z,14.81
2022-10-12T04:29:47.021Z,14.81
2022-10-12T04:32:13.669Z,14.73
2022-10-12T04:34:40.427Z,14.87
2022-10-12T04:37:07.336Z,14.97
2022-10-12T04:39:34.067Z,14.84
2022-10-12T04:42:00.796Z,14.81
2022-10-12T04:44:31.993Z,14.81
2022-10-12T04:46:59.822Z,14.77
2022-10-12T04:49:26.577Z,14.91
2022-10-12T04:51:53.169Z,14.88
2022-10-12T04:54:19.871Z,15.02
2022-10-12T04:56:48.130Z,14.98
2022-10-12T04:59:15.193Z,14.92
2022-10-12T05:01:42.273Z,14.96
2022-10-12T05:04:09.131Z,14.97
2022-10-12T05:06:35.836Z,14.99
2022-10-12T05:09:02.975Z,15.19
2022-10-12T05:11:29.664Z,15.05
2022-10-12T05:13:56.307Z,15.12
2022-10-12T05:16:23.286Z,15.26
2022-10-12T05:18:49.956Z,15.32
2022-10-12T05:21:16.671Z,15.42
2022-10-12T05:23:43.294Z,15.50
2022-10-12T05:26:09.884Z,15.21
2022-10-12T05:28:40.869Z,15.45
2022-10-12T05:31:08.602Z,15.52
2022-10-12T05:33:35.586Z,15.55
2022-10-12T05:36:02.294Z,15.57
2022-10-12T05:38:28.991Z,15.51
2022-10-12T05:41:00.381Z,15.54
2022-10-12T05:43:27.909Z,15.63
2022-10-12T05:45:54.586Z,15.67
2022-10-12T05:48:21.180Z,15.64
2022-10-12T05:50:47.823Z,15.79
2022-10-12T05:53:14.531Z,15.92
2022-10-12T05:55:41.192Z,15.91
2022-10-12T05:58:07.911Z,16.10
2022-10-12T06:00:34.504Z,15.93
2022-10-12T06:03:01.133Z,16.10
2022-10-12T06:05:27.778Z,16.00
2022-10-12T06:07:54.449Z,16.17
2022-10-12T06:10:21.130Z,16.20
2022-10-12T06:12:47.761Z,16.37
2022-10-12T06:15:14.569Z,16.41
2022-10-12T06:17:41.336Z,16.49
2022-10-12T06:20:08.400Z,16.54
2022-10-12T06:22:35.396Z,16.58
2022-10-12T06:25:02.296Z,16.59
2022-10-12T06:27:28.986Z,16.60
2022-10-12T06:29:55.808Z,16.58
2022-10-12T06:32:22.453Z,16.71
2022-10-12T06:34:49.210Z,16.88
2022-10-12T06:37:44.571Z,16.77
2022-10-12T06:40:02.637Z,17.09
2022-10-12T06:42:29.236Z,17.08
2022-10-12T06:44:55.805Z,17.27
2022-10-12T06:47:22.499Z,17.21
2022-10-12T06:49:49.112Z,17.44
2022-10-12T06:52:15.905Z,17.70
2022-10-12T06:54:42.640Z,17.90
2022-10-12T06:57:09.359Z,18.11
2022-10-12T06:59:36.103Z,18.22
2022-10-12T07:02:02.842Z,18.06
2022-10-12T07:04:29.533Z,18.46
2022-10-12T07:06:56.179Z,18.41
2022-10-12T07:09:22.740Z,18.40
2022-10-12T07:11:49.409Z,18.50
2022-10-12T07:14:16.180Z,18.40
2022-10-12T07:16:42.872Z,18.25
2022-10-12T07:19:09.648Z,18.05
2022-10-12T07:21:36.342Z,18.21
2022-10-12T07:24:02.979Z,18.43
2022-10-12T07:26:29.685Z,18.40
2022-10-12T07:28:56.352Z,18.40
2022-10-12T07:31:23.047Z,18.57
2022-10-12T07:33:49.900Z,18.74
2022-10-12T07:36:21.225Z,18.77
2022-10-12T07:38:49.234Z,18.94
2022-10-12T07:41:16.177Z,19.27
2022-10-12T07:43:43.394Z,19.41
2022-10-12T07:46:10.334Z,19.53
2022-10-12T07:48:38.011Z,19.50
2022-10-12T07:51:10.205Z,19.79
2022-10-12T07:53:38.097Z,19.82
2022-10-12T07:56:08.008Z,19.70
2022-10-12T07:58:34.925Z,19.48
2022-10-12T08:01:06.924Z,19.18
2022-10-12T08:03:33.714Z,19.19
2022-10-12T08:06:00.729Z,18.79
2022-10-12T08:08:27.316Z,18.66
2022-10-12T08:10:54.106Z,18.90
2022-10-12T08:13:20.676Z,19.24
2022-10-12T08:15:51.008Z,19.41
2022-10-12T08:18:17.872Z,19.49
2022-10-12T08:20:44.543Z,19.51
2022-10-12T08:23:11.352Z,19.75
2022-10-12T08:25:38.249Z,19.89
2022-10-12T08:28:06.012Z,19.96
2022-10-12T08:30:35.885Z,19.93
2022-10-12T08:33:04.798Z,20.03
2022-10-12T08:35:33.530Z,19.89
2022-10-12T08:38:00.162Z,20.11
2022-10-12T08:40:33.460Z,20.00
2022-10-12T08:43:15.706Z,19.88
2022-10-12T08:45:54.716Z,19.92
2022-10-12T08:48:28.968Z,20.06
2022-10-12T08:51:11.170Z,20.31
2022-10-12T08:53:50.877Z,20.23
2022-10-12T08:56:21.435Z,20.23
2022-10-12T08:58:50.089Z,20.07
2022-10-12T09:01:29.185Z,20.16
2022-10-12T09:04:12.334Z,20.11
2022-10-12T09:06:53.957Z,20.18
2022-10-12T09:09:58.226Z,20.18
2022-10-12T09:12:36.095Z,20.42
2022-10-12T09:15:11.154Z,20.60
2022-10-12T09:17:46.594Z,20.79
2022-10-12T09:20:21.438Z,20.88
2022-10-12T09:22:58.720Z,21.00
2022-10-12T09:25:27.937Z,21.07
2022-10-12T09:28:06.907Z,20.87
2022-10-12T09:30:41.735Z,20.69
2022-10-12T09:33:23.750Z,20.89
2022-10-12T09:35:51.363Z,20.91
2022-10-12T09:38:18.214Z,21.03
2022-10-12T09:40:45.777Z,21.15
2022-10-12T09:43:14.624Z,20.68
2022-10-12T09:45:42.530Z,20.37
2022-10-12T09:48:11.316Z,20.35
2022-10-12T09:51:05.037Z,20.14
2022-10-12T09:53:43.467Z,20.20
2022-10-12T09:56:22.982Z,20.23
2022-10-12T09:58:53.522Z,19.87
2022-10-12T10:01:26.749Z,20.12
2022-10-12T10:04:14.175Z,20.56
2022-10-12T10:06:44.175Z,20.78
2022-10-12T10:09:31.077Z,21.10
2022-10-12T10:12:11.440Z,21.24
2022-10-12T10:14:38.478Z,21.44
2022-10-12T10:17:05.270Z,21.68
2022-10-12T10:19:31.955Z,22.02
2022-10-12T10:22:05.775Z,22.15
2022-10-12T10:24:34.121Z,22.14
2022-10-12T10:27:29.036Z,21.70
2022-10-12T10:30:32.055Z,22.00
2022-10-12T10:33:17.722Z,22.14
2022-10-12T10:36:07.085Z,21.75
2022-10-12T10:38:53.395Z,21.54
2022-10-12T10:41:25.247Z,21.49
2022-10-12T10:43:51.938Z,21.33
2022-10-12T10:46:25.371Z,21.55
2022-10-12T10:49:06.929Z,21.55
2022-10-12T10:51:53.915Z,21.53
2022-10-12T10:54:23.727Z,21.72
2022-10-12T10:56:53.361Z,21.55
2022-10-12T10:59:45.705Z,21.54
2022-10-12T11:02:22.332Z,21.40
2022-10-12T11:04:54.059Z,21.46
2022-10-12T11:07:35.504Z,21.30
2022-10-12T11:10:09.382Z,21.17
2022-10-12T11:12:41.420Z,21.11
2022-10-12T11:15:18.693Z,20.95
2022-10-12T11:17:49.973Z,20.98
2022-10-12T11:20:30.535Z,20.86
2022-10-12T11:23:14.178Z,20.50
2022-10-12T11:25:49.293Z,20.57
2022-10-12T11:28:16.824Z,20.79
2022-10-12T11:30:51.716Z,20.77
2022-10-12T11:33:24.811Z,21.04
2022-10-12T11:35:54.726Z,21.01
2022-10-12T11:38:32.925Z,21.17
2022-10-12T11:41:31.082Z,21.16
2022-10-12T11:44:00.987Z,21.20
2022-10-12T11:46:37.468Z,21.21
2022-10-12T11:49:35.502Z,21.12
2022-10-12T11:52:08.662Z,21.10
2022-10-12T11:55:13.658Z,21.14
2022-10-12T11:57:40.627Z,21.10
2022-10-12T12:00:22.853Z,21.15
2022-10-12T12:03:10.654Z,21.13
2022-10-12T12:05:37.573Z,21.13
2022-10-12T12:08:04.382Z,20.92
2022-10-12T12:10:34.967Z,21.05
2022-10-12T12:13:13.116Z,21.24
2022-10-12T12:15:41.998Z,21.20
2022-10-12T12:18:13.909Z,21.32
2022-10-12T12:20:43.582Z,21.34
2022-10-12T12:23:25.990Z,21.48
2022-10-12T12:26:17.655Z,21.41
2022-10-12T12:28:44.364Z,21.43
2022-10-12T12:31:37.611Z,21.46
2022-10-12T12:34:07.373Z,21.43
2022-10-12T12:36:46.531Z,21.29
2022-10-12T12:39:35.025Z,21.12
2022-10-12T12:42:03.623Z,21.12
2022-10-12T12:44:42.947Z,21.06
2022-10-12T12:50:00.832Z,21.03
2022-10-12T12:52:31.855Z,21.21
2022-10-12T12:55:10.581Z,21.26
2022-10-12T12:58:01.564Z,21.27
2022-10-12T13:01:00.643Z,21.27
2022-10-12T13:03:55.208Z,21.25
2022-10-12T13:06:59.553Z,21.23
2022-10-12T13:09:26.148Z,21.24
2022-10-12T13:11:55.693Z,21.41
2022-10-12T13:14:55.776Z,21.26
2022-10-12T13:17:34.475Z,21.41
2022-10-12T13:20:17.361Z,21.46
2022-10-12T13:22:47.274Z,21.37
2022-10-12T13:25:39.272Z,21.29
2022-10-12T13:28:12.474Z,21.28
2022-10-12T13:30:46.248Z,21.38
2022-10-12T13:33:21.597Z,21.18
2022-10-12T13:36:26.524Z,21.54
2022-10-12T13:38:58.314Z,21.48
2022-10-12T13:41:30.288Z,21.30
2022-10-12T13:44:07.617Z,21.32
2022-10-12T13:46:48.616Z,21.13
2022-10-12T13:49:25.857Z,21.04
2022-10-12T13:52:12.193Z,20.82
2022-10-12T13:54:41.300Z,21.01
2022-10-12T13:57:21.364Z,21.10
2022-10-12T13:59:53.978Z,21.10
2022-10-12T14:02:27.536Z,21.00
2022-10-12T14:04:56.578Z,20.78
2022-10-12T14:07:35.762Z,20.98
2022-10-12T14:10:19.288Z,20.84
2022-10-12T14:12:48.598Z,20.79
2022-10-12T14:15:16.049Z,20.83
2022-10-12T14:17:47.199Z,20.89
2022-10-12T14:20:27.158Z,20.93
2022-10-12T14:22:54.855Z,20.60
2022-10-12T14:25:28.319Z,20.77
2022-10-12T14:28:00.770Z,20.43
2022-10-12T14:30:51.498Z,20.41
2022-10-12T14:33:18.075Z,20.61
2022-10-12T14:35:49.707Z,20.35
2022-10-12T14:38:45.803Z,20.44
2022-10-12T14:41:49.049Z,20.47
2022-10-12T14:44:18.730Z,20.37
2022-10-12T14:46:54.415Z,20.36
2022-10-12T14:49:26.865Z,20.33
2022-10-12T14:51:55.446Z,20.10
2022-10-12T14:54:22.506Z,20.13
2022-10-12T14:56:49.207Z,20.09
2022-10-12T14:59:16.012Z,20.07
2022-10-12T15:01:44.277Z,20.15
2022-10-12T15:04:14.887Z,19.94
2022-10-12T15:06:41.638Z,19.81
2022-10-12T15:09:08.287Z,19.73
2022-10-12T15:11:34.907Z,19.85
2022-10-12T15:14:01.517Z,19.65
2022-10-12T15:16:29.127Z,19.70
2022-10-12T15:18:55.905Z,19.57
2022-10-12T15:21:22.687Z,19.68
2022-10-12T15:23:50.355Z,19.42
2022-10-12T15:26:18.647Z,19.45
2022-10-12T15:28:45.597Z,19.22
2022-10-12T15:31:17.955Z,19.30
2022-10-12T15:33:45.196Z,19.29
2022-10-12T15:36:12.094Z,19.06
2022-10-12T15:38:38.838Z,18.95
2022-10-12T15:41:05.966Z,18.79
2022-10-12T15:43:34.610Z,18.83
2022-10-12T15:46:03.626Z,18.70
2022-10-12T15:48:30.259Z,18.53
2022-10-12T15:50:57.054Z,18.55
2022-10-12T15:53:25.488Z,18.42
2022-10-12T15:55:54.241Z,18.64
2022-10-12T15:58:21.715Z,18.63
2022-10-12T16:00:48.800Z,18.63
2022-10-12T16:03:22.920Z,18.50
2022-10-12T16:05:52.577Z,18.47
2022-10-12T16:08:19.171Z,18.32
2022-10-12T16:10:46.239Z,18.23
2022-10-12T16:13:14.071Z,18.16
2022-10-12T16:15:41.989Z,18.42
2022-10-12T16:20:53.818Z,18.30
2022-10-12T16:23:25.484Z,18.30
2022-10-12T16:25:52.225Z,18.04
2022-10-12T16:28:19.610Z,18.28
2022-10-12T16:30:46.500Z,18.04
2022-10-12T16:33:13.120Z,17.97
2022-10-12T16:35:40.743Z,18.05
2022-10-12T16:38:09.043Z,18.06
2022-10-12T16:40:38.109Z,17.88
2022-10-12T16:43:04.750Z,17.72
2022-10-12T16:45:31.417Z,17.89
2022-10-12T16:47:58.023Z,17.72
2022-10-12T16:50:25.206Z,17.90
2022-10-12T16:52:52.760Z,17.91
2022-10-12T16:55:20.372Z,17.71
2022-10-12T16:57:47.426Z,17.71
2022-10-12T17:00:19.528Z,17.81
2022-10-12T17:02:47.344Z,17.65
2022-10-12T17:05:14.149Z,17.91
2022-10-12T17:07:40.781Z,17.69
2022-10-12T17:10:07.918Z,17.76
2022-10-12T17:12:35.642Z,17.59
2022-10-12T17:15:02.330Z,17.67
2022-10-12T17:17:28.963Z,17.92
2022-10-12T17:19:55.662Z,17.72
2022-10-12T17:22:22.404Z,18.00
2022-10-12T17:24:49.079Z,17.93
2022-10-12T17:27:16.906Z,17.85
2022-10-12T17:29:44.040Z,17.97
2022-10-12T17:32:12.173Z,18.01
2022-10-12T17:34:42.509Z,18.04
2022-10-12T17:37:13.712Z,18.01
2022-10-12T17:39:46.172Z,17.93
2022-10-12T17:42:13.612Z,17.86
2022-10-12T17:44:40.508Z,17.60
2022-10-12T17:47:07.675Z,17.83
2022-10-12T17:49:34.290Z,17.64
2022-10-12T17:52:00.898Z,17.59
2022-10-12T17:54:27.673Z,17.56
2022-10-12T17:56:55.888Z,17.51
2022-10-12T17:59:23.018Z,17.62
2022-10-12T18:01:50.502Z,17.73
2022-10-12T18:04:17.624Z,17.56
2022-10-12T18:06:45.845Z,17.56
2022-10-12T18:09:13.111Z,17.50
2022-10-12T18:11:40.195Z,17.26
2022-10-12T18:14:09.594Z,17.41
2022-10-12T18:16:36.942Z,17.50
2022-10-12T18:19:07.316Z,17.54
2022-10-12T18:21:34.278Z,17.32
2022-10-12T18:24:07.014Z,17.40
2022-10-12T18:26:33.872Z,17.33
2022-10-12T18:29:02.064Z,17.43
2022-10-12T18:31:30.229Z,17.17
2022-10-12T18:33:57.875Z,17.01
2022-10-12T18:36:25.201Z,17.02
2022-10-12T18:38:52.148Z,16.98
2022-10-12T18:41:25.797Z,16.90
2022-10-12T18:44:00.904Z,16.86
2022-10-12T18:46:29.454Z,16.68
2022-10-12T18:48:56.608Z,16.79
2022-10-12T18:51:27.704Z,16.75
2022-10-12T18:53:55.345Z,16.48
2022-10-12T18:56:22.574Z,16.49
2022-10-12T18:58:49.570Z,16.49
2022-10-12T19:01:22.245Z,16.64
2022-10-12T19:03:49.194Z,16.38
2022-10-12T19:06:19.470Z,16.52
2022-10-12T19:08:48.140Z,16.49
2022-10-12T19:11:17.666Z,16.37
2022-10-12T19:13:50.850Z,16.36
2022-10-12T19:16:18.074Z,16.24
2022-10-12T19:18:44.828Z,16.08
2022-10-12T19:21:20.578Z,16.10
2022-10-12T19:23:47.163Z,15.94
2022-10-12T19:26:16.952Z,16.09
2022-10-12T19:28:44.000Z,15.87
2022-10-12T19:31:16.991Z,16.10
2022-10-12T19:33:44.289Z,16.02
2022-10-12T19:36:13.119Z,16.02
2022-10-12T19:38:40.153Z,15.74
2022-10-12T19:41:07.482Z,15.81
2022-10-12T19:43:37.497Z,15.62
2022-10-12T19:46:05.875Z,15.67
2022-10-12T19:48:32.886Z,15.67
2022-10-12T19:51:05.078Z,15.61
2022-10-12T19:53:32.271Z,15.57
2022-10-12T19:56:14.019Z,15.56
2022-10-12T19:58:45.425Z,15.76
2022-10-12T20:01:15.250Z,15.46
2022-10-12T20:03:47.464Z,15.62
2022-10-12T20:06:14.510Z,15.35
2022-10-12T20:08:43.098Z,15.30
2022-10-12T20:11:15.603Z,15.49
2022-10-12T20:13:45.744Z,15.32
2022-10-12T20:16:13.500Z,15.37
2022-10-12T20:18:40.280Z,15.43
2022-10-12T20:21:09.950Z,15.42
2022-10-12T20:23:38.965Z,15.38
2022-10-12T20:26:08.669Z,15.33
2022-10-12T20:28:36.640Z,15.28
2022-10-12T20:31:05.522Z,15.21
2022-10-12T20:33:33.676Z,15.27
2022-10-12T20:36:00.621Z,15.18
2022-10-12T20:38:27.691Z,14.81
2022-10-12T20:41:08.037Z,15.06
2022-10-12T20:43:36.639Z,14.97
2022-10-12T20:46:04.681Z,14.74
2022-10-12T20:48:32.333Z,14.88
2022-10-12T20:50:59.443Z,14.88
2022-10-12T20:53:26.403Z,14.71
2022-10-12T20:55:53.717Z,14.72
2022-10-12T20:58:24.322Z,14.44
2022-10-12T21:01:07.845Z,14.76
2022-10-12T21:03:34.748Z,14.60
2022-10-12T21:06:10.852Z,14.61
2022-10-12T21:08:37.803Z,14.64
2022-10-12T21:11:06.040Z,14.67
2022-10-12T21:13:34.600Z,14.57
2022-10-12T21:16:01.668Z,14.56
2022-10-12T21:18:32.721Z,14.51
2022-10-12T21:21:11.782Z,14.59
2022-10-12T21:23:39.901Z,14.53
2022-10-12T21:26:18.585Z,14.36
2022-10-12T21:28:46.321Z,14.49
2022-10-12T21:31:13.919Z,14.46
2022-10-12T21:33:40.798Z,14.31
2022-10-12T21:36:11.752Z,14.41
2022-10-12T21:38:39.250Z,14.33
2022-10-12T21:41:08.028Z,14.38
2022-10-12T21:43:36.151Z,14.26
2022-10-12T21:46:08.514Z,14.41
2022-10-12T21:48:35.679Z,14.50
2022-10-12T21:51:03.843Z,14.54
2022-10-12T21:53:30.909Z,14.27
2022-10-12T21:55:57.730Z,14.43
2022-10-12T21:58:24.437Z,14.20
2022-10-12T22:00:51.138Z,14.22
2022-10-12T22:03:17.825Z,14.39
2022-10-12T22:05:44.992Z,14.44
2022-10-12T22:08:11.764Z,14.28
2022-10-12T22:10:39.601Z,14.05
2022-10-12T22:13:07.423Z,14.35
2022-10-12T22:15:35.498Z,14.20
2022-10-12T22:18:02.182Z,14.27
2022-10-12T22:20:28.817Z,14.10
2022-10-12T22:22:55.416Z,14.26
2022-10-12T22:25:22.059Z,14.18
2022-10-12T22:27:48.825Z,13.97
2022-10-12T22:30:15.581Z,13.87
2022-10-12T22:32:42.429Z,13.86
2022-10-12T22:35:09.413Z,13.84
2022-10-12T22:37:36.107Z,13.78
2022-10-12T22:40:04.087Z,13.99
2022-10-12T22:42:30.828Z,13.90
2022-10-12T22:44:57.581Z,13.87
2022-10-12T22:47:25.738Z,13.81
2022-10-12T22:49:52.377Z,13.90
2022-10-12T22:52:19.181Z,13.72
2022-10-12T22:54:46.343Z,13.67
2022-10-12T22:57:12.945Z,13.56
2022-10-12T22:59:41.085Z,13.75
2022-10-12T23:02:07.766Z,13.82
2022-10-12T23:04:34.642Z,13.66
2022-10-12T23:07:01.190Z,13.64
2022-10-12T23:09:27.756Z,13.62
2022-10-12T23:11:54.384Z,13.71
2022-10-12T23:14:21.122Z,13.67
2022-10-12T23:16:47.738Z,13.76
2022-10-12T23:19:14.401Z,13.66
2022-10-12T23:21:41.059Z,13.67
2022-10-12T23:24:08.240Z,13.62
2022-10-12T23:26:35.005Z,13.62
2022-10-12T23:29:01.893Z,13.63
2022-10-12T23:31:30.765Z,13.67
2022-10-12T23:34:02.766Z,13.68
2022-10-12T23:36:30.323Z,13.47
2022-10-12T23:39:00.354Z,13.60
2022-10-12T23:41:27.053Z,13.54
2022-10-12T23:43:53.623Z,13.32
2022-10-12T23:46:20.330Z,13.48
2022-10-12T23:48:46.995Z,13.44
2022-10-12T23:51:13.634Z,13.31
2022-10-12T23:53:43.621Z,13.48
2022-10-12T23:56:10.776Z,13.57
2022-10-12T23:58:37.523Z,13.60
